createdAt,value
2016-04-17T00:00:32.146Z,0
2016-04-17T00:01:32.148Z,0
2016-04-17T00:02:32.151Z,0
2016-04-17T00:03:32.154Z,0
2016-04-17T00:04:32.172Z,0
2016-04-17T00:05:32.191Z,0
2016-04-17T00:06:32.177Z,0
2016-04-17T00:07:32.196Z,0
2016-04-17T00:08:32.198Z,0
2016-04-17T00:09:32.468Z,0
2016-04-17T00:10:32.204Z,0
2016-04-17T00:11:32.223Z,0
2016-04-17T00:12:32.226Z,0
2016-04-17T00:13:32.243Z,0
2016-04-17T00:14:32.261Z,0
2016-04-17T00:15:32.264Z,0
2016-04-17T00:16:32.251Z,0
2016-04-17T00:17:32.286Z,0
2016-04-17T00:18:32.288Z,0
2016-04-17T00:19:32.291Z,0
2016-04-17T00:20:32.308Z,0
2016-04-17T00:21:32.297Z,0
2016-04-17T00:22:32.314Z,0
2016-04-17T00:23:32.317Z,0
2016-04-17T00:24:32.742Z,0
2016-04-17T00:25:32.338Z,0
2016-04-17T00:26:32.341Z,0
2016-04-17T00:27:32.343Z,0
2016-04-17T00:28:32.346Z,0
2016-04-17T00:29:32.363Z,0
2016-04-17T00:30:32.366Z,0
2016-04-17T00:31:32.369Z,0
2016-04-17T00:32:32.388Z,0
2016-04-17T00:33:32.390Z,0
2016-04-17T00:34:32.409Z,0
2016-04-17T00:35:32.396Z,0
2016-04-17T00:36:32.415Z,0
2016-04-17T00:37:32.433Z,0
2016-04-17T00:38:32.420Z,0
2016-04-17T00:39:32.313Z,0
2016-04-17T00:40:32.440Z,0
2016-04-17T00:41:32.459Z,0
2016-04-17T00:42:32.446Z,0
2016-04-17T00:43:32.465Z,0
2016-04-17T00:44:32.483Z,0
2016-04-17T00:45:32.501Z,0
2016-04-17T00:46:32.472Z,0
2016-04-17T00:47:32.522Z,0
2016-04-17T00:48:32.509Z,0
2016-04-17T00:49:32.512Z,0
2016-04-17T00:50:32.515Z,0
2016-04-17T00:51:32.517Z,0
2016-04-17T00:52:32.520Z,0
2016-04-17T00:53:32.539Z,0
2016-04-17T00:54:32.667Z,0
2016-04-17T00:55:32.544Z,0
2016-04-17T00:56:32.562Z,0
2016-04-17T00:57:32.580Z,0
2016-04-17T00:58:32.567Z,0
2016-04-17T00:59:32.569Z,0
2016-04-17T01:00:32.589Z,0
2016-04-17T01:01:32.607Z,0
2016-04-17T01:02:32.610Z,0
2016-04-17T01:03:32.612Z,0
2016-04-17T01:04:32.630Z,0
2016-04-17T01:05:32.633Z,0
2016-04-17T01:06:32.636Z,0
2016-04-17T01:07:32.638Z,0
2016-04-17T01:08:32.657Z,0
2016-04-17T01:09:32.550Z,0
2016-04-17T01:10:32.662Z,0
2016-04-17T01:11:32.665Z,0
2016-04-17T01:12:32.684Z,0
2016-04-17T01:13:32.702Z,0
2016-04-17T01:14:32.689Z,0
2016-04-17T01:15:32.706Z,0
2016-04-17T01:16:32.709Z,0
2016-04-17T01:17:32.712Z,0
2016-04-17T01:18:32.715Z,0
2016-04-17T01:19:32.734Z,0
2016-04-17T01:20:32.736Z,0
2016-04-17T01:21:32.739Z,0
2016-04-17T01:22:32.741Z,0
2016-04-17T01:23:32.759Z,0
2016-04-17T01:24:32.794Z,0
2016-04-17T01:25:32.765Z,0
2016-04-17T01:26:32.783Z,0
2016-04-17T01:27:32.802Z,0
2016-04-17T01:28:32.804Z,0
2016-04-17T01:29:32.807Z,0
2016-04-17T01:30:32.810Z,0
2016-04-17T01:31:32.828Z,0
2016-04-17T01:32:32.830Z,0
2016-04-17T01:33:32.849Z,0
2016-04-17T01:34:32.851Z,0
2016-04-17T01:35:32.855Z,0
2016-04-17T01:36:32.857Z,0
2016-04-17T01:37:32.876Z,0
2016-04-17T01:38:32.878Z,0
2016-04-17T01:39:32.771Z,0
2016-04-17T01:40:32.898Z,0
2016-04-17T01:41:32.918Z,0
2016-04-17T01:42:32.920Z,0
2016-04-17T01:43:32.907Z,0
2016-04-17T01:44:32.909Z,0
2016-04-17T01:45:32.787Z,0
2016-04-17T01:46:32.946Z,0
2016-04-17T01:47:32.965Z,0
2016-04-17T01:48:32.951Z,0
2016-04-17T01:49:32.220Z,0
2016-04-17T01:50:32.972Z,0
2016-04-17T01:51:32.975Z,0
2016-04-17T01:52:32.978Z,0
2016-04-17T01:53:32.997Z,0
2016-04-17T01:54:33.000Z,0
2016-04-17T01:55:33.002Z,0
2016-04-17T01:56:32.848Z,0
2016-04-17T01:57:33.022Z,0
2016-04-17T01:58:33.025Z,0
2016-04-17T01:59:33.044Z,0
2016-04-17T02:00:33.047Z,0
2016-04-17T02:01:33.049Z,0
2016-04-17T02:02:33.052Z,0
2016-04-17T02:03:33.054Z,0
2016-04-17T02:04:33.074Z,0
2016-04-17T02:05:33.076Z,0
2016-04-17T02:06:33.079Z,0
2016-04-17T02:07:33.096Z,0
2016-04-17T02:08:33.099Z,0
2016-04-17T02:09:33.118Z,0
2016-04-17T02:10:33.121Z,0
2016-04-17T02:11:33.123Z,0
2016-04-17T02:12:33.126Z,0
2016-04-17T02:13:33.128Z,0
2016-04-17T02:14:33.162Z,0
2016-04-17T02:15:33.164Z,0
2016-04-17T02:16:33.168Z,0
2016-04-17T02:17:33.170Z,0
2016-04-17T02:18:33.032Z,0
2016-04-17T02:19:33.175Z,0
2016-04-17T02:20:33.194Z,0
2016-04-17T02:21:33.025Z,0
2016-04-17T02:22:33.205Z,0
2016-04-17T02:23:33.207Z,0
2016-04-17T02:24:33.225Z,0
2016-04-17T02:25:33.244Z,0
2016-04-17T02:26:33.230Z,0
2016-04-17T02:27:33.233Z,0
2016-04-17T02:28:33.236Z,0
2016-04-17T02:29:33.254Z,0
2016-04-17T02:30:33.257Z,0
2016-04-17T02:31:33.260Z,0
2016-04-17T02:32:33.278Z,0
2016-04-17T02:33:33.281Z,0
2016-04-17T02:34:33.315Z,0
2016-04-17T02:35:33.302Z,0
2016-04-17T02:36:33.304Z,0
2016-04-17T02:37:33.307Z,0
2016-04-17T02:38:33.310Z,0
2016-04-17T02:39:33.329Z,0
2016-04-17T02:40:33.331Z,0
2016-04-17T02:41:33.349Z,0
2016-04-17T02:42:33.351Z,0
2016-04-17T02:43:33.354Z,0
2016-04-17T02:44:33.373Z,0
2016-04-17T02:45:33.360Z,0
2016-04-17T02:46:33.378Z,0
2016-04-17T02:47:33.397Z,0
2016-04-17T02:48:33.399Z,0
2016-04-17T02:49:33.418Z,0
2016-04-17T02:50:33.405Z,0
2016-04-17T02:51:33.423Z,0
2016-04-17T02:52:33.425Z,0
2016-04-17T02:53:33.428Z,0
2016-04-17T02:54:33.430Z,0
2016-04-17T02:55:33.434Z,0
2016-04-17T02:56:33.452Z,0
2016-04-17T02:57:33.455Z,0
2016-04-17T02:58:33.472Z,0
2016-04-17T02:59:33.491Z,0
2016-04-17T03:00:33.478Z,0
2016-04-17T03:01:33.480Z,0
2016-04-17T03:02:33.483Z,0
2016-04-17T03:03:33.502Z,0
2016-04-17T03:04:33.505Z,0
2016-04-17T03:05:33.507Z,0
2016-04-17T03:06:33.541Z,0
2016-04-17T03:07:33.544Z,0
2016-04-17T03:08:33.531Z,0
2016-04-17T03:09:33.549Z,0
2016-04-17T03:10:33.552Z,0
2016-04-17T03:11:33.554Z,0
2016-04-17T03:12:33.589Z,0
2016-04-17T03:13:33.560Z,0
2016-04-17T03:14:33.579Z,0
2016-04-17T03:15:33.581Z,0
2016-04-17T03:16:33.600Z,0
2016-04-17T03:17:33.617Z,0
2016-04-17T03:18:33.620Z,0
2016-04-17T03:19:33.623Z,0
2016-04-17T03:20:33.625Z,0
2016-04-17T03:21:33.659Z,0
2016-04-17T03:22:33.631Z,0
2016-04-17T03:23:33.681Z,0
2016-04-17T03:24:33.668Z,0
2016-04-17T03:25:33.655Z,0
2016-04-17T03:26:33.658Z,0
2016-04-17T03:27:33.675Z,0
2016-04-17T03:28:33.694Z,0
2016-04-17T03:29:33.712Z,0
2016-04-17T03:30:33.747Z,0
2016-04-17T03:31:33.718Z,0
2016-04-17T03:32:33.705Z,0
2016-04-17T03:33:33.707Z,0
2016-04-17T03:34:33.726Z,0
2016-04-17T03:35:33.743Z,0
2016-04-17T03:36:33.763Z,0
2016-04-17T03:37:33.765Z,0
2016-04-17T03:38:33.768Z,0
2016-04-17T03:39:33.786Z,0
2016-04-17T03:40:33.773Z,0
2016-04-17T03:41:33.776Z,0
2016-04-17T03:42:33.810Z,0
2016-04-17T03:43:33.781Z,0
2016-04-17T03:44:33.800Z,0
2016-04-17T03:45:33.803Z,0
2016-04-17T03:46:33.820Z,0
2016-04-17T03:47:33.823Z,0
2016-04-17T03:48:33.842Z,0
2016-04-17T03:49:33.829Z,0
2016-04-17T03:50:33.848Z,0
2016-04-17T03:51:33.850Z,0
2016-04-17T03:52:33.852Z,0
2016-04-17T03:53:33.871Z,0
2016-04-17T03:54:33.873Z,0
2016-04-17T03:55:33.876Z,0
2016-04-17T03:56:33.894Z,0
2016-04-17T03:57:33.897Z,0
2016-04-17T03:58:33.900Z,0
2016-04-17T03:59:33.918Z,0
2016-04-17T04:00:33.921Z,0
2016-04-17T04:01:33.924Z,0
2016-04-17T04:02:33.942Z,0
2016-04-17T04:03:33.929Z,0
2016-04-17T04:04:33.947Z,0
2016-04-17T04:05:33.950Z,0
2016-04-17T04:06:33.953Z,0
2016-04-17T04:07:33.971Z,0
2016-04-17T04:08:33.974Z,0
2016-04-17T04:09:33.992Z,0
2016-04-17T04:10:33.995Z,0
2016-04-17T04:11:33.997Z,0
2016-04-17T04:12:34.001Z,0
2016-04-17T04:13:34.018Z,0
2016-04-17T04:14:34.021Z,0
2016-04-17T04:15:34.023Z,0
2016-04-17T04:16:34.027Z,0
2016-04-17T04:17:34.045Z,0
2016-04-17T04:18:34.048Z,0
2016-04-17T04:19:34.050Z,0
2016-04-17T04:20:34.068Z,0
2016-04-17T04:21:34.070Z,0
2016-04-17T04:22:34.089Z,0
2016-04-17T04:23:34.092Z,0
2016-04-17T04:24:34.095Z,0
2016-04-17T04:25:34.113Z,4
2016-04-17T04:26:34.116Z,4
2016-04-17T04:27:34.118Z,4
2016-04-17T04:28:34.121Z,4
2016-04-17T04:29:34.124Z,4
2016-04-17T04:30:34.142Z,4
2016-04-17T04:31:34.161Z,4
2016-04-17T04:32:34.179Z,8
2016-04-17T04:33:34.182Z,8
2016-04-17T04:34:34.169Z,4
2016-04-17T04:35:34.203Z,4
2016-04-17T04:36:34.190Z,8
2016-04-17T04:37:34.177Z,8
2016-04-17T04:38:34.195Z,8
2016-04-17T04:39:34.213Z,12
2016-04-17T04:40:34.232Z,12
2016-04-17T04:41:34.234Z,12
2016-04-17T04:42:34.221Z,16
2016-04-17T04:43:34.240Z,16
2016-04-17T04:44:34.242Z,16
2016-04-17T04:45:34.245Z,16
2016-04-17T04:46:34.091Z,16
2016-04-17T04:47:34.266Z,12
2016-04-17T04:48:34.268Z,16
2016-04-17T04:49:34.271Z,16
2016-04-17T04:50:34.305Z,12
2016-04-17T04:51:34.308Z,12
2016-04-17T04:52:34.311Z,12
2016-04-17T04:53:34.314Z,12
2016-04-17T04:54:34.316Z,12
2016-04-17T04:55:34.647Z,12
2016-04-17T04:56:34.368Z,8
2016-04-17T04:57:34.339Z,8
2016-04-17T04:58:34.358Z,8
2016-04-17T04:59:34.204Z,4
2016-04-17T05:00:34.348Z,8
2016-04-17T05:01:34.366Z,8
2016-04-17T05:02:34.369Z,4
2016-04-17T05:03:34.371Z,8
2016-04-17T05:04:34.390Z,12
2016-04-17T05:05:34.236Z,8
2016-04-17T05:06:34.396Z,12
2016-04-17T05:07:34.398Z,12
2016-04-17T05:08:34.416Z,12
2016-04-17T05:09:34.418Z,12
2016-04-17T05:10:34.594Z,12
2016-04-17T05:11:34.455Z,16
2016-04-17T05:12:34.474Z,16
2016-04-17T05:13:34.445Z,20
2016-04-17T05:14:34.463Z,24
2016-04-17T05:15:34.465Z,20
2016-04-17T05:16:34.469Z,20
2016-04-17T05:17:34.487Z,20
2016-04-17T05:18:34.490Z,24
2016-04-17T05:19:34.508Z,20
2016-04-17T05:20:34.511Z,20
2016-04-17T05:21:34.513Z,16
2016-04-17T05:22:34.532Z,16
2016-04-17T05:23:34.550Z,16
2016-04-17T05:24:34.522Z,16
2016-04-17T05:25:34.571Z,16
2016-04-17T05:26:34.636Z,16
2016-04-17T05:27:34.545Z,16
2016-04-17T05:28:34.548Z,16
2016-04-17T05:29:34.582Z,16
2016-04-17T05:30:34.569Z,16
2016-04-17T05:31:34.588Z,16
2016-04-17T05:32:34.636Z,16
2016-04-17T05:33:34.593Z,16
2016-04-17T05:34:34.611Z,16
2016-04-17T05:35:34.614Z,16
2016-04-17T05:36:34.616Z,16
2016-04-17T05:37:34.650Z,16
2016-04-17T05:38:34.621Z,16
2016-04-17T05:39:34.640Z,20
2016-04-17T05:40:34.658Z,16
2016-04-17T05:41:34.646Z,16
2016-04-17T05:42:34.648Z,16
2016-04-17T05:43:34.666Z,20
2016-04-17T05:44:34.669Z,16
2016-04-17T05:45:34.688Z,16
2016-04-17T05:46:34.690Z,16
2016-04-17T05:47:34.693Z,20
2016-04-17T05:48:34.712Z,16
2016-04-17T05:49:34.714Z,16
2016-04-17T05:50:34.717Z,20
2016-04-17T05:51:34.720Z,16
2016-04-17T05:52:34.738Z,16
2016-04-17T05:53:34.756Z,16
2016-04-17T05:54:34.806Z,16
2016-04-17T05:55:34.823Z,20
2016-04-17T05:56:34.780Z,20
2016-04-17T05:57:34.782Z,20
2016-04-17T05:58:34.770Z,20
2016-04-17T05:59:34.788Z,20
2016-04-17T06:00:34.791Z,24
2016-04-17T06:01:34.808Z,20
2016-04-17T06:02:34.812Z,20
2016-04-17T06:03:34.867Z,20
2016-04-17T06:04:34.909Z,20
2016-04-17T06:05:34.952Z,20
2016-04-17T06:06:34.995Z,24
2016-04-17T06:07:35.037Z,20
2016-04-17T06:08:35.071Z,20
2016-04-17T06:09:35.088Z,20
2016-04-17T06:10:35.168Z,24
2016-04-17T06:11:35.122Z,24
2016-04-17T06:12:35.155Z,24
2016-04-17T06:13:35.179Z,24
2016-04-17T06:14:35.172Z,24
2016-04-17T06:15:35.196Z,28
2016-04-17T06:16:35.188Z,28
2016-04-17T06:17:35.212Z,28
2016-04-17T06:18:35.231Z,28
2016-04-17T06:19:35.236Z,32
2016-04-17T06:20:35.240Z,32
2016-04-17T06:21:35.106Z,32
2016-04-17T06:22:35.250Z,32
2016-04-17T06:23:35.269Z,32
2016-04-17T06:24:35.273Z,36
2016-04-17T06:25:35.167Z,32
2016-04-17T06:26:35.280Z,32
2016-04-17T06:27:35.315Z,32
2016-04-17T06:28:35.302Z,32
2016-04-17T06:29:35.320Z,32
2016-04-17T06:30:35.322Z,36
2016-04-17T06:31:35.325Z,40
2016-04-17T06:32:35.328Z,44
2016-04-17T06:33:35.346Z,44
2016-04-17T06:34:35.333Z,52
2016-04-17T06:35:35.367Z,56
2016-04-17T06:36:35.213Z,60
2016-04-17T06:37:35.372Z,60
2016-04-17T06:38:35.391Z,64
2016-04-17T06:39:35.393Z,68
2016-04-17T06:40:35.397Z,72
2016-04-17T06:41:35.399Z,64
2016-04-17T06:42:35.417Z,60
2016-04-17T06:43:35.421Z,56
2016-04-17T06:44:35.423Z,56
2016-04-17T06:45:35.426Z,52
2016-04-17T06:46:35.444Z,56
2016-04-17T06:47:35.446Z,60
2016-04-17T06:48:35.465Z,64
2016-04-17T06:49:35.468Z,60
2016-04-17T06:50:35.470Z,56
2016-04-17T06:51:35.473Z,52
2016-04-17T06:52:35.492Z,44
2016-04-17T06:53:35.494Z,44
2016-04-17T06:54:35.497Z,40
2016-04-17T06:55:35.499Z,40
2016-04-17T06:56:35.517Z,40
2016-04-17T06:57:35.521Z,40
2016-04-17T06:58:35.538Z,36
2016-04-17T06:59:35.542Z,36
2016-04-17T07:00:35.528Z,36
2016-04-17T07:01:35.547Z,36
2016-04-17T07:02:35.565Z,40
2016-04-17T07:03:35.552Z,40
2016-04-17T07:04:35.570Z,44
2016-04-17T07:05:35.573Z,44
2016-04-17T07:06:35.591Z,48
2016-04-17T07:07:35.594Z,44
2016-04-17T07:08:35.597Z,44
2016-04-17T07:09:35.615Z,44
2016-04-17T07:10:35.618Z,44
2016-04-17T07:11:35.620Z,44
2016-04-17T07:12:35.483Z,48
2016-04-17T07:13:35.641Z,52
2016-04-17T07:14:35.643Z,52
2016-04-17T07:15:35.662Z,56
2016-04-17T07:16:35.509Z,52
2016-04-17T07:17:35.667Z,52
2016-04-17T07:18:35.671Z,56
2016-04-17T07:19:35.673Z,56
2016-04-17T07:20:35.692Z,56
2016-04-17T07:21:35.537Z,56
2016-04-17T07:22:35.698Z,48
2016-04-17T07:23:35.700Z,44
2016-04-17T07:24:35.718Z,44
2016-04-17T07:25:35.720Z,40
2016-04-17T07:26:35.739Z,40
2016-04-17T07:27:35.742Z,40
2016-04-17T07:28:35.745Z,44
2016-04-17T07:29:35.762Z,44
2016-04-17T07:30:35.765Z,52
2016-04-17T07:31:35.767Z,56
2016-04-17T07:32:35.770Z,60
2016-04-17T07:33:35.789Z,60
2016-04-17T07:34:35.792Z,68
2016-04-17T07:35:35.794Z,68
2016-04-17T07:36:35.813Z,64
2016-04-17T07:37:35.816Z,68
2016-04-17T07:38:35.850Z,68
2016-04-17T07:39:35.836Z,68
2016-04-17T07:40:35.855Z,72
2016-04-17T07:41:35.857Z,72
2016-04-17T07:42:35.876Z,76
2016-04-17T07:43:35.879Z,80
2016-04-17T07:44:35.866Z,84
2016-04-17T07:45:35.899Z,80
2016-04-17T07:46:35.871Z,72
2016-04-17T07:47:35.873Z,76
2016-04-17T07:48:37.251Z,76
2016-04-17T07:49:35.895Z,76
2016-04-17T07:50:35.912Z,84
2016-04-17T07:51:35.915Z,88
2016-04-17T07:52:35.762Z,88
2016-04-17T07:53:35.937Z,88
2016-04-17T07:54:35.940Z,88
2016-04-17T07:55:35.942Z,84
2016-04-17T07:56:35.960Z,84
2016-04-17T07:57:35.978Z,80
2016-04-17T07:58:35.981Z,84
2016-04-17T07:59:35.983Z,76
2016-04-17T08:00:35.987Z,76
2016-04-17T08:01:35.973Z,76
2016-04-17T08:02:36.008Z,68
2016-04-17T08:03:36.025Z,68
2016-04-17T08:04:36.044Z,64
2016-04-17T08:05:36.031Z,64
2016-04-17T08:06:36.033Z,68
2016-04-17T08:07:36.021Z,72
2016-04-17T08:08:36.571Z,72
2016-04-17T08:09:36.042Z,76
2016-04-17T08:10:36.061Z,80
2016-04-17T08:11:36.079Z,80
2016-04-17T08:12:36.096Z,84
2016-04-17T08:13:36.099Z,88
2016-04-17T08:14:36.087Z,88
2016-04-17T08:15:36.105Z,84
2016-04-17T08:16:36.093Z,88
2016-04-17T08:17:36.110Z,88
2016-04-17T08:18:36.112Z,92
2016-04-17T08:19:36.115Z,92
2016-04-17T08:20:36.134Z,96
2016-04-17T08:21:36.151Z,96
2016-04-17T08:22:36.155Z,104
2016-04-17T08:23:36.157Z,112
2016-04-17T08:24:36.145Z,116
2016-04-17T08:25:36.178Z,120
2016-04-17T08:26:36.165Z,120
2016-04-17T08:27:36.184Z,120
2016-04-17T08:28:36.187Z,120
2016-04-17T08:29:36.190Z,120
2016-04-17T08:30:36.192Z,112
2016-04-17T08:31:36.195Z,116
2016-04-17T08:32:36.228Z,112
2016-04-17T08:33:36.231Z,116
2016-04-17T08:34:36.219Z,120
2016-04-17T08:35:36.236Z,124
2016-04-17T08:36:36.271Z,128
2016-04-17T08:37:36.242Z,132
2016-04-17T08:38:36.260Z,136
2016-04-17T08:39:36.279Z,136
2016-04-17T08:40:36.266Z,132
2016-04-17T08:41:36.285Z,132
2016-04-17T08:42:36.303Z,132
2016-04-17T08:43:36.306Z,124
2016-04-17T08:44:36.308Z,116
2016-04-17T08:45:36.310Z,116
2016-04-17T08:46:36.298Z,116
2016-04-17T08:47:36.363Z,120
2016-04-17T08:48:36.179Z,120
2016-04-17T08:49:36.337Z,124
2016-04-17T08:50:36.355Z,132
2016-04-17T08:51:36.358Z,140
2016-04-17T08:52:36.346Z,140
2016-04-17T08:53:36.363Z,148
2016-04-17T08:54:36.381Z,148
2016-04-17T08:55:36.415Z,148
2016-04-17T08:56:36.403Z,148
2016-04-17T08:57:36.390Z,140
2016-04-17T08:58:36.393Z,132
2016-04-17T08:59:36.411Z,124
2016-04-17T09:00:36.257Z,124
2016-04-17T09:01:36.432Z,120
2016-04-17T09:02:36.434Z,116
2016-04-17T09:03:36.437Z,120
2016-04-17T09:04:36.455Z,116
2016-04-17T09:05:36.458Z,116
2016-04-17T09:06:36.477Z,116
2016-04-17T09:07:36.480Z,112
2016-04-17T09:08:36.482Z,116
2016-04-17T09:09:36.485Z,120
2016-04-17T09:10:36.487Z,120
2016-04-17T09:11:36.506Z,132
2016-04-17T09:12:36.727Z,140
2016-04-17T09:13:36.511Z,148
2016-04-17T09:14:36.513Z,148
2016-04-17T09:15:36.517Z,152
2016-04-17T09:16:36.535Z,156
2016-04-17T09:17:36.538Z,164
2016-04-17T09:18:36.540Z,172
2016-04-17T09:19:36.543Z,180
2016-04-17T09:20:36.577Z,184
2016-04-17T09:21:36.579Z,192
2016-04-17T09:22:36.582Z,200
2016-04-17T09:23:36.568Z,208
2016-04-17T09:24:36.588Z,204
2016-04-17T09:25:36.606Z,200
2016-04-17T09:26:36.624Z,192
2016-04-17T09:27:36.612Z,188
2016-04-17T09:28:36.646Z,196
2016-04-17T09:29:36.632Z,196
2016-04-17T09:30:36.635Z,200
2016-04-17T09:31:36.653Z,204
2016-04-17T09:32:36.672Z,216
2016-04-17T09:33:36.675Z,212
2016-04-17T09:34:36.678Z,208
2016-04-17T09:35:36.680Z,212
2016-04-17T09:36:36.698Z,208
2016-04-17T09:37:36.686Z,208
2016-04-17T09:38:36.689Z,204
2016-04-17T09:39:36.706Z,204
2016-04-17T09:40:36.709Z,208
2016-04-17T09:41:36.712Z,208
2016-04-17T09:42:36.745Z,200
2016-04-17T09:43:36.747Z,188
2016-04-17T09:44:36.735Z,180
2016-04-17T09:45:36.738Z,184
2016-04-17T09:46:36.756Z,172
2016-04-17T09:47:36.774Z,184
2016-04-17T09:48:36.778Z,204
2016-04-17T09:49:36.780Z,216
2016-04-17T09:50:36.783Z,228
2016-04-17T09:51:36.802Z,236
2016-04-17T09:52:36.819Z,248
2016-04-17T09:53:36.822Z,264
2016-04-17T09:54:36.825Z,268
2016-04-17T09:55:36.671Z,276
2016-04-17T09:56:36.846Z,272
2016-04-17T09:57:36.849Z,272
2016-04-17T09:58:36.851Z,268
2016-04-17T09:59:36.853Z,272
2016-04-17T10:00:36.872Z,280
2016-04-17T10:01:36.859Z,300
2016-04-17T10:02:36.862Z,312
2016-04-17T10:03:36.881Z,320
2016-04-17T10:04:36.899Z,320
2016-04-17T10:05:36.901Z,324
2016-04-17T10:06:36.904Z,324
2016-04-17T10:07:36.938Z,320
2016-04-17T10:08:36.940Z,308
2016-04-17T10:09:36.927Z,296
2016-04-17T10:10:36.946Z,292
2016-04-17T10:11:36.886Z,288
2016-04-17T10:12:36.951Z,284
2016-04-17T10:13:36.953Z,276
2016-04-17T10:14:36.956Z,268
2016-04-17T10:15:36.990Z,256
2016-04-17T10:16:36.994Z,240
2016-04-17T10:17:36.996Z,228
2016-04-17T10:18:36.999Z,220
2016-04-17T10:19:37.017Z,208
2016-04-17T10:20:37.019Z,200
2016-04-17T10:21:36.944Z,208
2016-04-17T10:22:37.040Z,220
2016-04-17T10:23:37.027Z,232
2016-04-17T10:24:37.062Z,232
2016-04-17T10:25:37.048Z,248
2016-04-17T10:26:36.957Z,260
2016-04-17T10:27:37.070Z,272
2016-04-17T10:28:37.073Z,272
2016-04-17T10:29:37.076Z,268
2016-04-17T10:30:37.093Z,260
2016-04-17T10:31:37.112Z,248
2016-04-17T10:32:37.114Z,236
2016-04-17T10:33:37.117Z,220
2016-04-17T10:34:37.120Z,204
2016-04-17T10:35:37.122Z,208
2016-04-17T10:36:37.125Z,212
2016-04-17T10:37:37.143Z,212
2016-04-17T10:38:36.412Z,220
2016-04-17T10:39:37.165Z,224
2016-04-17T10:40:37.167Z,224
2016-04-17T10:41:37.264Z,228
2016-04-17T10:42:37.172Z,224
2016-04-17T10:43:37.175Z,216
2016-04-17T10:44:37.194Z,216
2016-04-17T10:45:37.211Z,208
2016-04-17T10:46:37.215Z,200
2016-04-17T10:47:37.216Z,200
2016-04-17T10:48:37.220Z,200
2016-04-17T10:49:37.223Z,204
2016-04-17T10:50:37.225Z,208
2016-04-17T10:51:37.244Z,216
2016-04-17T10:52:37.263Z,220
2016-04-17T10:53:37.265Z,224
2016-04-17T10:54:37.268Z,228
2016-04-17T10:55:37.285Z,224
2016-04-17T10:56:37.288Z,216
2016-04-17T10:57:37.306Z,208
2016-04-17T10:58:37.293Z,196
2016-04-17T10:59:37.297Z,184
2016-04-17T11:00:37.315Z,176
2016-04-17T11:01:37.318Z,164
2016-04-17T11:02:37.320Z,168
2016-04-17T11:03:37.338Z,168
2016-04-17T11:04:37.185Z,164
2016-04-17T11:05:37.359Z,156
2016-04-17T11:06:37.346Z,152
2016-04-17T11:07:37.380Z,164
2016-04-17T11:08:37.367Z,164
2016-04-17T11:09:37.386Z,152
2016-04-17T11:10:37.388Z,136
2016-04-17T11:11:37.578Z,132
2016-04-17T11:12:37.409Z,148
2016-04-17T11:13:37.412Z,180
2016-04-17T11:14:37.431Z,208
2016-04-17T11:15:37.417Z,220
2016-04-17T11:16:37.436Z,216
2016-04-17T11:17:37.455Z,208
2016-04-17T11:18:37.441Z,212
2016-04-17T11:19:37.460Z,184
2016-04-17T11:20:37.463Z,124
2016-04-17T11:21:37.466Z,92
2016-04-17T11:22:37.483Z,88
2016-04-17T11:23:37.485Z,88
2016-04-17T11:24:37.504Z,88
2016-04-17T11:25:37.491Z,96
2016-04-17T11:26:37.557Z,100
2016-04-17T11:27:37.512Z,124
2016-04-17T11:28:37.515Z,144
2016-04-17T11:29:37.533Z,152
2016-04-17T11:30:37.535Z,168
2016-04-17T11:31:37.538Z,192
2016-04-17T11:32:37.557Z,212
2016-04-17T11:33:37.575Z,216
2016-04-17T11:34:37.594Z,212
2016-04-17T11:35:37.581Z,204
2016-04-17T11:36:37.583Z,204
2016-04-17T11:37:37.601Z,216
2016-04-17T11:38:37.604Z,212
2016-04-17T11:39:37.607Z,208
2016-04-17T11:40:37.609Z,212
2016-04-17T11:41:37.534Z,224
2016-04-17T11:42:37.631Z,236
2016-04-17T11:43:37.634Z,236
2016-04-17T11:44:37.637Z,232
2016-04-17T11:45:37.655Z,220
2016-04-17T11:46:37.689Z,208
2016-04-17T11:47:37.676Z,200
2016-04-17T11:48:37.694Z,184
2016-04-17T11:49:37.681Z,172
2016-04-17T11:50:37.683Z,152
2016-04-17T11:51:37.702Z,140
2016-04-17T11:52:37.704Z,148
2016-04-17T11:53:37.738Z,136
2016-04-17T11:54:37.725Z,132
2016-04-17T11:55:37.728Z,120
2016-04-17T11:56:37.809Z,116
2016-04-17T11:57:37.733Z,112
2016-04-17T11:58:37.768Z,112
2016-04-17T11:59:37.771Z,112
2016-04-17T12:00:37.774Z,112
2016-04-17T12:01:37.791Z,120
2016-04-17T12:02:37.810Z,120
2016-04-17T12:03:37.813Z,120
2016-04-17T12:04:37.799Z,112
2016-04-17T12:05:37.802Z,112
2016-04-17T12:06:37.821Z,112
2016-04-17T12:07:37.839Z,120
2016-04-17T12:08:37.842Z,116
2016-04-17T12:09:37.844Z,116
2016-04-17T12:10:37.847Z,120
2016-04-17T12:11:38.100Z,128
2016-04-17T12:12:37.853Z,128
2016-04-17T12:13:37.855Z,132
2016-04-17T12:14:38.139Z,144
2016-04-17T12:15:37.875Z,136
2016-04-17T12:16:37.878Z,124
2016-04-17T12:17:37.897Z,124
2016-04-17T12:18:37.914Z,124
2016-04-17T12:19:37.917Z,132
2016-04-17T12:20:37.920Z,136
2016-04-17T12:21:37.939Z,144
2016-04-17T12:22:37.941Z,144
2016-04-17T12:23:37.960Z,140
2016-04-17T12:24:37.930Z,156
2016-04-17T12:25:37.950Z,176
2016-04-17T12:26:38.000Z,180
2016-04-17T12:27:37.971Z,172
2016-04-17T12:28:37.989Z,164
2016-04-17T12:29:37.991Z,156
2016-04-17T12:30:38.010Z,128
2016-04-17T12:31:38.013Z,148
2016-04-17T12:32:38.016Z,124
2016-04-17T12:33:38.034Z,104
2016-04-17T12:34:38.037Z,116
2016-04-17T12:35:38.040Z,128
2016-04-17T12:36:38.042Z,136
2016-04-17T12:37:38.045Z,148
2016-04-17T12:38:38.048Z,160
2016-04-17T12:39:38.065Z,164
2016-04-17T12:40:38.068Z,168
2016-04-17T12:41:38.165Z,168
2016-04-17T12:42:38.104Z,168
2016-04-17T12:43:38.106Z,172
2016-04-17T12:44:38.109Z,172
2016-04-17T12:45:38.112Z,172
2016-04-17T12:46:38.115Z,176
2016-04-17T12:47:38.134Z,180
2016-04-17T12:48:38.136Z,180
2016-04-17T12:49:44.342Z,180
2016-04-17T12:50:38.157Z,188
2016-04-17T12:51:38.160Z,196
2016-04-17T12:52:38.147Z,200
2016-04-17T12:53:39.430Z,216
2016-04-17T12:54:38.183Z,228
2016-04-17T12:55:38.202Z,236
2016-04-17T12:56:38.298Z,244
2016-04-17T12:57:38.207Z,264
2016-04-17T12:58:40.382Z,272
2016-04-17T12:59:38.197Z,276
2016-04-17T13:00:38.216Z,288
2016-04-17T13:01:38.250Z,308
2016-04-17T13:02:38.252Z,344
2016-04-17T13:03:38.255Z,408
2016-04-17T13:04:38.243Z,424
2016-04-17T13:05:38.260Z,440
2016-04-17T13:06:38.262Z,452
2016-04-17T13:07:38.281Z,448
2016-04-17T13:08:38.299Z,464
2016-04-17T13:09:38.271Z,508
2016-04-17T13:10:38.304Z,600
2016-04-17T13:11:38.307Z,596
2016-04-17T13:12:38.326Z,512
2016-04-17T13:13:38.345Z,456
2016-04-17T13:14:38.347Z,404
2016-04-17T13:15:38.334Z,356
2016-04-17T13:16:38.353Z,320
2016-04-17T13:17:38.355Z,300
2016-04-17T13:18:38.358Z,288
2016-04-17T13:19:38.376Z,296
2016-04-17T13:20:38.363Z,328
2016-04-17T13:21:38.381Z,356
2016-04-17T13:22:38.384Z,360
2016-04-17T13:23:38.386Z,360
2016-04-17T13:24:38.405Z,356
2016-04-17T13:25:38.407Z,344
2016-04-17T13:26:38.426Z,320
2016-04-17T13:27:38.429Z,300
2016-04-17T13:28:38.447Z,280
2016-04-17T13:29:38.465Z,256
2016-04-17T13:30:38.452Z,232
2016-04-17T13:31:38.471Z,204
2016-04-17T13:32:38.458Z,188
2016-04-17T13:33:38.476Z,172
2016-04-17T13:34:38.479Z,160
2016-04-17T13:35:38.341Z,148
2016-04-17T13:36:38.484Z,152
2016-04-17T13:37:38.502Z,148
2016-04-17T13:38:38.521Z,140
2016-04-17T13:39:38.508Z,140
2016-04-17T13:40:38.526Z,140
2016-04-17T13:41:38.529Z,136
2016-04-17T13:42:38.532Z,140
2016-04-17T13:43:38.550Z,144
2016-04-17T13:44:38.568Z,160
2016-04-17T13:45:38.556Z,188
2016-04-17T13:46:38.573Z,200
2016-04-17T13:47:38.592Z,204
2016-04-17T13:48:38.595Z,212
2016-04-17T13:49:38.581Z,216
2016-04-17T13:50:38.616Z,200
2016-04-17T13:51:38.603Z,184
2016-04-17T13:52:38.621Z,168
2016-04-17T13:53:38.452Z,172
2016-04-17T13:54:38.642Z,180
2016-04-17T13:55:38.630Z,188
2016-04-17T13:56:38.632Z,192
2016-04-17T13:57:38.650Z,208
2016-04-17T13:58:38.653Z,216
2016-04-17T13:59:38.671Z,236
2016-04-17T14:00:38.674Z,252
2016-04-17T14:01:38.677Z,264
2016-04-17T14:02:38.710Z,268
2016-04-17T14:03:38.697Z,280
2016-04-17T14:04:38.715Z,304
2016-04-17T14:05:38.718Z,316
2016-04-17T14:06:38.737Z,308
2016-04-17T14:07:38.723Z,316
2016-04-17T14:08:38.742Z,356
2016-04-17T14:09:38.745Z,388
2016-04-17T14:10:38.778Z,392
2016-04-17T14:11:38.750Z,344
2016-04-17T14:12:38.768Z,284
2016-04-17T14:13:38.771Z,244